sensor_id;sensor_type;location;lat;lon;timestamp;P1;durP1;ratioP1;P2;durP2;ratioP2
17193;SDS011;8713;48.388;10.928;2024-03-07T07:40:07;16.00;;;10.02;;
17193;SDS011;8713;48.388;10.928;2024-03-07T07:41:38;24.20;;;13.90;;
17193;SDS011;8713;48.388;10.928;2024-03-07T07:43:07;16.02;;;10.45;;
17193;SDS011;8713;48.388;10.928;2024-03-07T07:44:37;19.73;;;11.95;;
17193;SDS011;8713;48.388;10.928;2024-03-07T07:46:07;20.15;;;11.40;;
17193;SDS011;8713;48.388;10.928;2024-03-07T07:47:43;20.17;;;11.43;;
17193;SDS011;8713;48.388;10.928;2024-03-07T07:49:14;17.17;;;10.30;;
17193;SDS011;8713;48.388;10.928;2024-03-07T07:50:45;19.13;;;11.07;;
17193;SDS011;8713;48.388;10.928;2024-03-07T07:52:14;18.05;;;10.32;;
17193;SDS011;8713;48.388;10.928;2024-03-07T07:53:45;19.70;;;12.20;;
17193;SDS011;8713;48.388;10.928;2024-03-07T07:55:14;15.13;;;9.25;;
17193;SDS011;8713;48.388;10.928;2024-03-07T07:56:44;16.40;;;10.15;;
17193;SDS011;8713;48.388;10.928;2024-03-07T07:58:13;18.50;;;10.00;;
17193;SDS011;8713;48.388;10.928;2024-03-07T07:59:43;19.88;;;9.73;;
17193;SDS011;8713;48.388;10.928;2024-03-07T08:01:13;18.45;;;10.63;;
17193;SDS011;8713;48.388;10.928;2024-03-07T08:02:45;16.35;;;9.23;;
17193;SDS011;8713;48.388;10.928;2024-03-07T08:04:14;15.32;;;8.73;;
17193;SDS011;8713;48.388;10.928;2024-03-07T08:05:44;16.27;;;10.02;;
17193;SDS011;8713;48.388;10.928;2024-03-07T08:07:16;17.90;;;10.77;;
17193;SDS011;8713;48.388;10.928;2024-03-07T08:08:46;19.25;;;12.15;;
17193;SDS011;8713;48.388;10.928;2024-03-07T08:10:19;17.50;;;10.50;;
17193;SDS011;8713;48.388;10.928;2024-03-07T08:11:49;22.60;;;12.80;;
17193;SDS011;8713;48.388;10.928;2024-03-07T08:13:19;18.45;;;10.45;;
17193;SDS011;8713;48.388;10.928;2024-03-07T08:14:48;21.35;;;11.85;;
17193;SDS011;8713;48.388;10.928;2024-03-07T08:16:19;19.98;;;11.93;;
17193;SDS011;8713;48.388;10.928;2024-03-07T08:17:48;20.02;;;11.90;;
17193;SDS011;8713;48.388;10.928;2024-03-07T08:19:18;18.30;;;10.77;;
17193;SDS011;8713;48.388;10.928;2024-03-07T08:20:48;16.02;;;9.32;;
17193;SDS011;8713;48.388;10.928;2024-03-07T08:22:18;19.20;;;10.05;;
17193;SDS011;8713;48.388;10.928;2024-03-07T08:23:48;14.75;;;9.15;;
17193;SDS011;8713;48.388;10.928;2024-03-07T08:25:22;19.10;;;10.90;;
17193;SDS011;8713;48.388;10.928;2024-03-07T08:26:53;14.70;;;8.75;;
17193;SDS011;8713;48.388;10.928;2024-03-07T08:28:23;22.38;;;12.40;;
17193;SDS011;8713;48.388;10.928;2024-03-07T08:29:53;17.92;;;10.70;;
17193;SDS011;8713;48.388;10.928;2024-03-07T08:31:22;24.45;;;12.15;;
17193;SDS011;8713;48.388;10.928;2024-03-07T08:32:53;15.48;;;9.93;;
17193;SDS011;8713;48.388;10.928;2024-03-07T08:34:24;15.38;;;9.52;;
17193;SDS011;8713;48.388;10.928;2024-03-07T08:35:54;23.70;;;12.82;;
17193;SDS011;8713;48.388;10.928;2024-03-07T08:37:24;15.75;;;9.88;;
17193;SDS011;8713;48.388;10.928;2024-03-07T08:38:53;16.90;;;10.18;;
17193;SDS011;8713;48.388;10.928;2024-03-07T08:40:24;21.42;;;12.27;;
17193;SDS011;8713;48.388;10.928;2024-03-07T08:41:55;20.00;;;11.32;;
17193;SDS011;8713;48.388;10.928;2024-03-07T08:43:25;17.63;;;10.82;;
17193;SDS011;8713;48.388;10.928;2024-03-07T08:44:56;21.50;;;11.55;;
17193;SDS011;8713;48.388;10.928;2024-03-07T08:46:26;17.80;;;10.55;;
17193;SDS011;8713;48.388;10.928;2024-03-07T08:47:57;19.45;;;11.40;;
17193;SDS011;8713;48.388;10.928;2024-03-07T08:49:26;22.20;;;12.18;;
17193;SDS011;8713;48.388;10.928;2024-03-07T08:50:56;23.40;;;12.02;;
17193;SDS011;8713;48.388;10.928;2024-03-07T08:52:26;17.42;;;10.35;;
17193;SDS011;8713;48.388;10.928;2024-03-07T08:53:57;18.48;;;10.90;;
17193;SDS011;8713;48.388;10.928;2024-03-07T08:55:26;19.55;;;10.27;;
17193;SDS011;8713;48.388;10.928;2024-03-07T08:56:56;22.30;;;11.77;;
17193;SDS011;8713;48.388;10.928;2024-03-07T08:58:25;17.15;;;9.75;;
17193;SDS011;8713;48.388;10.928;2024-03-07T08:59:55;19.10;;;11.27;;
17193;SDS011;8713;48.388;10.928;2024-03-07T09:01:24;22.10;;;12.43;;
17193;SDS011;8713;48.388;10.928;2024-03-07T09:02:54;21.17;;;12.77;;
17193;SDS011;8713;48.388;10.928;2024-03-07T09:04:28;23.95;;;14.13;;
17193;SDS011;8713;48.388;10.928;2024-03-07T09:05:58;19.38;;;11.68;;
17193;SDS011;8713;48.388;10.928;2024-03-07T09:07:27;18.48;;;10.23;;
17193;SDS011;8713;48.388;10.928;2024-03-07T09:08:58;18.80;;;10.43;;
17193;SDS011;8713;48.388;10.928;2024-03-07T09:10:28;26.80;;;11.48;;
17193;SDS011;8713;48.388;10.928;2024-03-07T09:11:59;26.63;;;12.32;;
17193;SDS011;8713;48.388;10.928;2024-03-07T09:13:32;16.30;;;9.80;;
17193;SDS011;8713;48.388;10.928;2024-03-07T09:15:03;22.48;;;11.88;;
17193;SDS011;8713;48.388;10.928;2024-03-07T09:16:33;23.67;;;11.98;;
17193;SDS011;8713;48.388;10.928;2024-03-07T09:18:03;21.65;;;11.30;;
17193;SDS011;8713;48.388;10.928;2024-03-07T09:19:33;21.40;;;10.95;;
17193;SDS011;8713;48.388;10.928;2024-03-07T09:21:03;16.00;;;9.95;;
17193;SDS011;8713;48.388;10.928;2024-03-07T09:22:33;24.08;;;12.95;;
17193;SDS011;8713;48.388;10.928;2024-03-07T09:24:02;20.77;;;11.77;;
17193;SDS011;8713;48.388;10.928;2024-03-07T09:25:32;21.95;;;10.60;;
17193;SDS011;8713;48.388;10.928;2024-03-07T09:27:03;18.88;;;10.35;;
17193;SDS011;8713;48.388;10.928;2024-03-07T09:28:34;18.00;;;9.93;;
17193;SDS011;8713;48.388;10.928;2024-03-07T09:30:04;19.77;;;10.27;;
17193;SDS011;8713;48.388;10.928;2024-03-07T09:31:38;20.95;;;11.02;;
17193;SDS011;8713;48.388;10.928;2024-03-07T09:33:09;18.98;;;10.60;;
17193;SDS011;8713;48.388;10.928;2024-03-07T09:34:39;22.63;;;11.65;;
17193;SDS011;8713;48.388;10.928;2024-03-07T09:36:09;21.70;;;11.15;;
17193;SDS011;8713;48.388;10.928;2024-03-07T09:37:42;20.50;;;11.75;;
17193;SDS011;8713;48.388;10.928;2024-03-07T09:39:13;25.85;;;12.73;;
17193;SDS011;8713;48.388;10.928;2024-03-07T09:40:43;21.73;;;11.10;;
17193;SDS011;8713;48.388;10.928;2024-03-07T09:42:13;25.05;;;13.25;;
17193;SDS011;8713;48.388;10.928;2024-03-07T09:43:47;22.20;;;12.10;;
17193;SDS011;8713;48.388;10.928;2024-03-07T09:45:17;19.92;;;11.95;;
17193;SDS011;8713;48.388;10.928;2024-03-07T09:46:55;23.10;;;13.55;;
17193;SDS011;8713;48.388;10.928;2024-03-07T09:48:27;23.40;;;13.55;;
17193;SDS011;8713;48.388;10.928;2024-03-07T09:49:58;22.38;;;13.50;;
17193;SDS011;8713;48.388;10.928;2024-03-07T09:51:29;22.95;;;13.60;;
17193;SDS011;8713;48.388;10.928;2024-03-07T09:52:59;25.00;;;13.63;;
17193;SDS011;8713;48.388;10.928;2024-03-07T09:54:29;28.13;;;15.80;;
17193;SDS011;8713;48.388;10.928;2024-03-07T09:55:59;24.30;;;13.77;;
17193;SDS011;8713;48.388;10.928;2024-03-07T09:57:29;22.02;;;12.48;;
17193;SDS011;8713;48.388;10.928;2024-03-07T09:59:05;24.50;;;12.05;;
17193;SDS011;8713;48.388;10.928;2024-03-07T10:00:42;22.70;;;11.00;;
17193;SDS011;8713;48.388;10.928;2024-03-07T10:02:11;21.42;;;12.45;;
17193;SDS011;8713;48.388;10.928;2024-03-07T10:03:45;21.83;;;12.25;;
17193;SDS011;8713;48.388;10.928;2024-03-07T10:05:17;22.70;;;12.70;;
17193;SDS011;8713;48.388;10.928;2024-03-07T10:06:47;23.95;;;12.20;;
17193;SDS011;8713;48.388;10.928;2024-03-07T10:08:18;18.92;;;11.23;;
17193;SDS011;8713;48.388;10.928;2024-03-07T10:09:48;21.25;;;12.50;;
17193;SDS011;8713;48.388;10.928;2024-03-07T10:11:00;25.92;;;15.52;;
17193;SDS011;8713;48.388;10.928;2024-03-07T10:12:10;35.92;;;20.75;;
17193;SDS011;8713;48.388;10.928;2024-03-07T10:13:21;29.85;;;17.83;;
17193;SDS011;8713;48.388;10.928;2024-03-07T10:14:32;28.45;;;16.95;;
17193;SDS011;8713;48.388;10.928;2024-03-07T10:15:41;28.30;;;16.73;;
17193;SDS011;8713;48.388;10.928;2024-03-07T10:16:55;26.42;;;15.93;;
17193;SDS011;8713;48.388;10.928;2024-03-07T10:18:21;28.38;;;16.02;;
17193;SDS011;8713;48.388;10.928;2024-03-07T10:19:51;30.85;;;16.88;;
17193;SDS011;8713;48.388;10.928;2024-03-07T10:21:21;27.13;;;15.10;;
17193;SDS011;8713;48.388;10.928;2024-03-07T10:22:49;26.67;;;15.45;;
17193;SDS011;8713;48.388;10.928;2024-03-07T10:24:20;30.42;;;15.30;;
17193;SDS011;8713;48.388;10.928;2024-03-07T10:25:52;26.92;;;16.45;;
17193;SDS011;8713;48.388;10.928;2024-03-07T10:27:22;32.05;;;18.08;;
17193;SDS011;8713;48.388;10.928;2024-03-07T10:28:51;28.42;;;16.25;;
17193;SDS011;8713;48.388;10.928;2024-03-07T10:30:00;29.02;;;15.90;;
17193;SDS011;8713;48.388;10.928;2024-03-07T10:31:10;28.25;;;16.35;;
17193;SDS011;8713;48.388;10.928;2024-03-07T10:32:20;28.48;;;17.02;;
17193;SDS011;8713;48.388;10.928;2024-03-07T10:33:31;32.08;;;16.70;;
17193;SDS011;8713;48.388;10.928;2024-03-07T10:34:43;27.58;;;17.05;;
17193;SDS011;8713;48.388;10.928;2024-03-07T10:35:55;26.58;;;15.68;;
17193;SDS011;8713;48.388;10.928;2024-03-07T10:37:05;31.00;;;17.17;;
17193;SDS011;8713;48.388;10.928;2024-03-07T10:38:18;32.53;;;17.42;;
17193;SDS011;8713;48.388;10.928;2024-03-07T10:39:27;27.67;;;16.70;;
17193;SDS011;8713;48.388;10.928;2024-03-07T10:40:37;33.85;;;20.40;;
17193;SDS011;8713;48.388;10.928;2024-03-07T10:41:49;32.58;;;20.02;;
17193;SDS011;8713;48.388;10.928;2024-03-07T10:42:59;28.42;;;17.17;;
17193;SDS011;8713;48.388;10.928;2024-03-07T10:44:11;30.42;;;17.38;;
17193;SDS011;8713;48.388;10.928;2024-03-07T10:45:32;27.83;;;16.35;;
17193;SDS011;8713;48.388;10.928;2024-03-07T10:46:44;30.45;;;16.23;;
17193;SDS011;8713;48.388;10.928;2024-03-07T10:48:16;28.08;;;15.75;;
17193;SDS011;8713;48.388;10.928;2024-03-07T10:50:03;26.75;;;14.93;;
17193;SDS011;8713;48.388;10.928;2024-03-07T10:51:44;26.40;;;15.02;;
17193;SDS011;8713;48.388;10.928;2024-03-07T10:57:10;26.63;;;15.40;;
17193;SDS011;8713;48.388;10.928;2024-03-07T10:59:04;27.23;;;14.85;;
17193;SDS011;8713;48.388;10.928;2024-03-07T11:00:48;29.35;;;15.25;;
17193;SDS011;8713;48.388;10.928;2024-03-07T11:04:06;25.75;;;16.17;;
17193;SDS011;8713;48.388;10.928;2024-03-07T11:05:34;27.80;;;15.07;;
17193;SDS011;8713;48.388;10.928;2024-03-07T11:07:03;26.80;;;16.13;;
17193;SDS011;8713;48.388;10.928;2024-03-07T11:08:32;27.45;;;15.40;;
17193;SDS011;8713;48.388;10.928;2024-03-07T11:10:02;28.65;;;15.82;;
17193;SDS011;8713;48.388;10.928;2024-03-07T11:11:39;26.10;;;15.15;;
17193;SDS011;8713;48.388;10.928;2024-03-07T11:13:08;26.60;;;14.93;;
17193;SDS011;8713;48.388;10.928;2024-03-07T11:14:39;25.85;;;15.38;;
17193;SDS011;8713;48.388;10.928;2024-03-07T11:16:08;25.65;;;14.38;;
17193;SDS011;8713;48.388;10.928;2024-03-07T11:17:37;23.92;;;15.40;;
17193;SDS011;8713;48.388;10.928;2024-03-07T11:19:19;23.33;;;13.52;;
17193;SDS011;8713;48.388;10.928;2024-03-07T11:20:59;23.42;;;13.95;;
17193;SDS011;8713;48.388;10.928;2024-03-07T11:22:30;24.92;;;14.48;;
17193;SDS011;8713;48.388;10.928;2024-03-07T11:24:00;22.60;;;13.10;;
17193;SDS011;8713;48.388;10.928;2024-03-07T11:25:28;24.90;;;14.30;;
17193;SDS011;8713;48.388;10.928;2024-03-07T11:26:57;21.60;;;12.30;;
17193;SDS011;8713;48.388;10.928;2024-03-07T11:28:28;19.80;;;12.40;;
17193;SDS011;8713;48.388;10.928;2024-03-07T11:29:58;21.48;;;13.18;;
17193;SDS011;8713;48.388;10.928;2024-03-07T11:31:35;20.33;;;12.48;;
17193;SDS011;8713;48.388;10.928;2024-03-07T11:33:07;24.08;;;13.63;;
17193;SDS011;8713;48.388;10.928;2024-03-07T11:34:35;23.52;;;13.85;;
17193;SDS011;8713;48.388;10.928;2024-03-07T11:36:09;25.83;;;13.82;;
17193;SDS011;8713;48.388;10.928;2024-03-07T11:37:41;22.52;;;13.27;;
17193;SDS011;8713;48.388;10.928;2024-03-07T11:41:11;22.75;;;12.93;;
17193;SDS011;8713;48.388;10.928;2024-03-07T11:42:42;24.00;;;13.27;;
17193;SDS011;8713;48.388;10.928;2024-03-07T11:44:16;27.17;;;13.85;;
17193;SDS011;8713;48.388;10.928;2024-03-07T11:45:46;24.35;;;13.13;;
17193;SDS011;8713;48.388;10.928;2024-03-07T11:47:19;25.67;;;13.73;;
17193;SDS011;8713;48.388;10.928;2024-03-07T11:48:48;22.88;;;13.60;;
17193;SDS011;8713;48.388;10.928;2024-03-07T11:50:16;23.80;;;13.57;;
17193;SDS011;8713;48.388;10.928;2024-03-07T11:51:47;22.48;;;12.75;;
17193;SDS011;8713;48.388;10.928;2024-03-07T11:53:15;21.33;;;12.00;;
17193;SDS011;8713;48.388;10.928;2024-03-07T11:54:43;20.73;;;12.25;;
17193;SDS011;8713;48.388;10.928;2024-03-07T11:56:14;19.63;;;11.93;;
17193;SDS011;8713;48.388;10.928;2024-03-07T11:57:44;25.65;;;13.18;;
17193;SDS011;8713;48.388;10.928;2024-03-07T11:59:13;22.65;;;13.15;;
17193;SDS011;8713;48.388;10.928;2024-03-07T12:00:42;24.33;;;13.57;;
17193;SDS011;8713;48.388;10.928;2024-03-07T12:02:12;21.73;;;11.25;;
17193;SDS011;8713;48.388;10.928;2024-03-07T12:03:45;21.10;;;12.50;;
17193;SDS011;8713;48.388;10.928;2024-03-07T12:05:18;22.90;;;12.00;;
17193;SDS011;8713;48.388;10.928;2024-03-07T12:06:28;19.20;;;11.85;;
17193;SDS011;8713;48.388;10.928;2024-03-07T12:07:58;21.08;;;12.48;;
17193;SDS011;8713;48.388;10.928;2024-03-07T12:09:27;23.88;;;13.15;;
17193;SDS011;8713;48.388;10.928;2024-03-07T12:10:55;18.45;;;11.65;;
17193;SDS011;8713;48.388;10.928;2024-03-07T12:12:24;21.67;;;12.35;;
17193;SDS011;8713;48.388;10.928;2024-03-07T12:13:53;21.08;;;12.10;;
17193;SDS011;8713;48.388;10.928;2024-03-07T12:15:22;24.45;;;11.95;;
17193;SDS011;8713;48.388;10.928;2024-03-07T12:16:50;19.85;;;11.27;;
17193;SDS011;8713;48.388;10.928;2024-03-07T12:18:19;20.00;;;11.25;;
17193;SDS011;8713;48.388;10.928;2024-03-07T12:19:50;19.52;;;11.02;;
17193;SDS011;8713;48.388;10.928;2024-03-07T12:21:21;18.10;;;10.70;;
17193;SDS011;8713;48.388;10.928;2024-03-07T12:22:50;17.20;;;9.82;;
17193;SDS011;8713;48.388;10.928;2024-03-07T12:24:31;17.90;;;10.52;;
17193;SDS011;8713;48.388;10.928;2024-03-07T12:26:03;18.73;;;10.70;;
17193;SDS011;8713;48.388;10.928;2024-03-07T12:27:31;20.35;;;11.02;;
17193;SDS011;8713;48.388;10.928;2024-03-07T12:29:06;14.95;;;8.82;;
17193;SDS011;8713;48.388;10.928;2024-03-07T12:30:50;17.00;;;10.07;;
17193;SDS011;8713;48.388;10.928;2024-03-07T12:32:22;17.65;;;10.02;;
17193;SDS011;8713;48.388;10.928;2024-03-07T12:33:51;17.25;;;10.35;;
17193;SDS011;8713;48.388;10.928;2024-03-07T12:35:20;18.55;;;10.82;;
17193;SDS011;8713;48.388;10.928;2024-03-07T12:36:33;19.73;;;10.40;;
17193;SDS011;8713;48.388;10.928;2024-03-07T12:38:14;17.00;;;10.20;;
17193;SDS011;8713;48.388;10.928;2024-03-07T12:39:44;21.77;;;11.55;;
17193;SDS011;8713;48.388;10.928;2024-03-07T12:41:17;19.75;;;10.35;;
17193;SDS011;8713;48.388;10.928;2024-03-07T12:42:48;17.90;;;10.07;;
17193;SDS011;8713;48.388;10.928;2024-03-07T12:44:18;22.67;;;13.02;;
17193;SDS011;8713;48.388;10.928;2024-03-07T12:45:50;21.13;;;11.55;;
17193;SDS011;8713;48.388;10.928;2024-03-07T12:47:19;23.35;;;12.27;;
17193;SDS011;8713;48.388;10.928;2024-03-07T12:48:47;18.65;;;11.60;;
17193;SDS011;8713;48.388;10.928;2024-03-07T12:50:17;20.27;;;11.40;;
17193;SDS011;8713;48.388;10.928;2024-03-07T12:51:47;25.58;;;11.65;;
17193;SDS011;8713;48.388;10.928;2024-03-07T12:53:18;25.35;;;13.35;;
17193;SDS011;8713;48.388;10.928;2024-03-07T12:54:50;22.60;;;11.98;;
17193;SDS011;8713;48.388;10.928;2024-03-07T12:56:19;19.38;;;11.60;;
17193;SDS011;8713;48.388;10.928;2024-03-07T12:57:48;25.67;;;12.68;;
17193;SDS011;8713;48.388;10.928;2024-03-07T12:59:17;21.58;;;12.32;;
17193;SDS011;8713;48.388;10.928;2024-03-07T13:00:47;20.58;;;11.15;;
17193;SDS011;8713;48.388;10.928;2024-03-07T13:02:15;20.00;;;11.13;;
17193;SDS011;8713;48.388;10.928;2024-03-07T13:03:43;21.88;;;11.55;;
17193;SDS011;8713;48.388;10.928;2024-03-07T13:05:12;23.00;;;11.93;;
17193;SDS011;8713;48.388;10.928;2024-03-07T13:06:36;22.85;;;11.80;;
17193;SDS011;8713;48.388;10.928;2024-03-07T13:07:46;21.60;;;11.63;;
17193;SDS011;8713;48.388;10.928;2024-03-07T13:09:15;22.95;;;11.43;;
17193;SDS011;8713;48.388;10.928;2024-03-07T13:10:45;24.00;;;11.75;;
17193;SDS011;8713;48.388;10.928;2024-03-07T13:12:13;20.23;;;11.68;;
17193;SDS011;8713;48.388;10.928;2024-03-07T13:13:42;20.52;;;11.88;;
17193;SDS011;8713;48.388;10.928;2024-03-07T13:15:10;22.92;;;11.25;;
17193;SDS011;8713;48.388;10.928;2024-03-07T13:16:39;21.35;;;11.10;;
17193;SDS011;8713;48.388;10.928;2024-03-07T13:18:00;20.00;;;10.43;;
17193;SDS011;8713;48.388;10.928;2024-03-07T13:19:29;18.55;;;10.40;;
17193;SDS011;8713;48.388;10.928;2024-03-07T13:20:59;21.35;;;10.18;;
17193;SDS011;8713;48.388;10.928;2024-03-07T13:22:31;22.63;;;10.85;;
17193;SDS011;8713;48.388;10.928;2024-03-07T13:23:59;17.65;;;9.82;;
17193;SDS011;8713;48.388;10.928;2024-03-07T13:25:28;18.15;;;10.20;;
17193;SDS011;8713;48.388;10.928;2024-03-07T13:27:00;19.83;;;10.35;;
17193;SDS011;8713;48.388;10.928;2024-03-07T13:28:13;18.27;;;9.95;;
17193;SDS011;8713;48.388;10.928;2024-03-07T13:29:44;17.40;;;9.75;;
17193;SDS011;8713;48.388;10.928;2024-03-07T13:31:13;16.88;;;9.98;;
17193;SDS011;8713;48.388;10.928;2024-03-07T13:32:45;15.40;;;9.27;;
17193;SDS011;8713;48.388;10.928;2024-03-07T13:34:13;16.85;;;9.70;;
17193;SDS011;8713;48.388;10.928;2024-03-07T13:35:42;19.55;;;8.82;;
17193;SDS011;8713;48.388;10.928;2024-03-07T13:37:12;17.85;;;9.70;;
17193;SDS011;8713;48.388;10.928;2024-03-07T13:38:46;18.42;;;9.85;;
17193;SDS011;8713;48.388;10.928;2024-03-07T13:40:14;18.13;;;10.00;;
17193;SDS011;8713;48.388;10.928;2024-03-07T13:41:52;20.33;;;10.02;;
17193;SDS011;8713;48.388;10.928;2024-03-07T13:43:21;19.35;;;9.95;;
17193;SDS011;8713;48.388;10.928;2024-03-07T13:44:49;19.95;;;9.93;;
17193;SDS011;8713;48.388;10.928;2024-03-07T13:46:17;18.55;;;9.57;;
17193;SDS011;8713;48.388;10.928;2024-03-07T13:47:46;19.27;;;9.52;;
17193;SDS011;8713;48.388;10.928;2024-03-07T13:49:20;19.05;;;9.48;;
17193;SDS011;8713;48.388;10.928;2024-03-07T13:50:51;16.38;;;9.43;;
17193;SDS011;8713;48.388;10.928;2024-03-07T13:52:21;21.25;;;10.30;;
17193;SDS011;8713;48.388;10.928;2024-03-07T13:53:51;21.42;;;10.07;;
17193;SDS011;8713;48.388;10.928;2024-03-07T13:55:41;21.20;;;9.60;;
17193;SDS011;8713;48.388;10.928;2024-03-07T13:57:31;17.80;;;9.10;;
17193;SDS011;8713;48.388;10.928;2024-03-07T13:59:31;18.35;;;9.52;;
17193;SDS011;8713;48.388;10.928;2024-03-07T14:01:52;15.70;;;8.48;;
17193;SDS011;8713;48.388;10.928;2024-03-07T14:04:12;17.80;;;9.68;;
17193;SDS011;8713;48.388;10.928;2024-03-07T14:05:55;17.55;;;9.60;;
17193;SDS011;8713;48.388;10.928;2024-03-07T14:10:34;18.95;;;10.00;;
17193;SDS011;8713;48.388;10.928;2024-03-07T14:17:43;20.13;;;10.65;;
17193;SDS011;8713;48.388;10.928;2024-03-07T14:22:02;20.15;;;9.43;;
17193;SDS011;8713;48.388;10.928;2024-03-07T14:25:31;19.00;;;8.95;;
17193;SDS011;8713;48.388;10.928;2024-03-07T14:28:59;21.75;;;9.95;;
17193;SDS011;8713;48.388;10.928;2024-03-07T14:30:39;22.02;;;10.82;;
17193;SDS011;8713;48.388;10.928;2024-03-07T14:32:26;19.85;;;10.18;;
17193;SDS011;8713;48.388;10.928;2024-03-07T14:37:35;19.08;;;9.93;;
17193;SDS011;8713;48.388;10.928;2024-03-07T14:39:11;16.80;;;9.38;;
17193;SDS011;8713;48.388;10.928;2024-03-07T14:40:50;20.17;;;9.80;;
17193;SDS011;8713;48.388;10.928;2024-03-07T14:42:19;20.38;;;9.20;;
17193;SDS011;8713;48.388;10.928;2024-03-07T14:43:47;17.77;;;9.57;;
17193;SDS011;8713;48.388;10.928;2024-03-07T14:45:19;20.25;;;10.13;;
17193;SDS011;8713;48.388;10.928;2024-03-07T14:46:53;19.50;;;10.13;;
17193;SDS011;8713;48.388;10.928;2024-03-07T14:48:26;24.08;;;11.70;;
17193;SDS011;8713;48.388;10.928;2024-03-07T14:49:55;19.15;;;9.70;;
17193;SDS011;8713;48.388;10.928;2024-03-07T14:51:23;18.95;;;9.63;;
17193;SDS011;8713;48.388;10.928;2024-03-07T14:52:53;20.27;;;10.00;;
17193;SDS011;8713;48.388;10.928;2024-03-07T14:54:21;20.60;;;9.80;;
17193;SDS011;8713;48.388;10.928;2024-03-07T14:55:49;20.02;;;8.90;;
17193;SDS011;8713;48.388;10.928;2024-03-07T14:57:17;17.75;;;9.52;;
17193;SDS011;8713;48.388;10.928;2024-03-07T14:58:46;18.27;;;9.65;;
17193;SDS011;8713;48.388;10.928;2024-03-07T15:00:14;21.88;;;10.13;;
17193;SDS011;8713;48.388;10.928;2024-03-07T15:01:54;17.50;;;9.73;;
17193;SDS011;8713;48.388;10.928;2024-03-07T15:03:22;20.20;;;9.90;;
17193;SDS011;8713;48.388;10.928;2024-03-07T15:04:51;18.38;;;9.73;;
17193;SDS011;8713;48.388;10.928;2024-03-07T15:06:20;19.60;;;9.88;;
17193;SDS011;8713;48.388;10.928;2024-03-07T15:07:50;20.58;;;10.20;;
17193;SDS011;8713;48.388;10.928;2024-03-07T15:09:20;18.35;;;10.20;;
17193;SDS011;8713;48.388;10.928;2024-03-07T15:11:33;21.25;;;10.30;;
17193;SDS011;8713;48.388;10.928;2024-03-07T15:13:07;18.15;;;8.52;;
17193;SDS011;8713;48.388;10.928;2024-03-07T15:14:41;20.17;;;11.00;;
17193;SDS011;8713;48.388;10.928;2024-03-07T15:16:10;19.38;;;9.77;;
17193;SDS011;8713;48.388;10.928;2024-03-07T15:17:38;15.65;;;9.00;;
17193;SDS011;8713;48.388;10.928;2024-03-07T15:19:09;22.52;;;11.10;;
17193;SDS011;8713;48.388;10.928;2024-03-07T15:20:39;21.38;;;11.13;;
17193;SDS011;8713;48.388;10.928;2024-03-07T15:22:09;19.70;;;10.65;;
17193;SDS011;8713;48.388;10.928;2024-03-07T15:23:31;21.70;;;11.23;;
17193;SDS011;8713;48.388;10.928;2024-03-07T15:24:59;20.88;;;11.23;;
17193;SDS011;8713;48.388;10.928;2024-03-07T15:26:30;24.55;;;13.35;;
17193;SDS011;8713;48.388;10.928;2024-03-07T15:28:02;22.33;;;13.32;;
17193;SDS011;8713;48.388;10.928;2024-03-07T15:29:31;33.83;;;20.35;;
17193;SDS011;8713;48.388;10.928;2024-03-07T15:30:59;28.80;;;18.23;;
17193;SDS011;8713;48.388;10.928;2024-03-07T15:32:33;19.00;;;12.02;;
17193;SDS011;8713;48.388;10.928;2024-03-07T15:34:02;17.88;;;9.15;;
17193;SDS011;8713;48.388;10.928;2024-03-07T15:35:31;18.45;;;9.35;;
17193;SDS011;8713;48.388;10.928;2024-03-07T15:37:00;16.17;;;8.93;;
17193;SDS011;8713;48.388;10.928;2024-03-07T15:38:31;16.52;;;9.20;;
17193;SDS011;8713;48.388;10.928;2024-03-07T15:40:04;16.60;;;8.88;;
17193;SDS011;8713;48.388;10.928;2024-03-07T15:41:39;16.02;;;7.90;;
17193;SDS011;8713;48.388;10.928;2024-03-07T15:43:08;16.20;;;8.80;;
17193;SDS011;8713;48.388;10.928;2024-03-07T15:44:36;16.30;;;8.82;;
17193;SDS011;8713;48.388;10.928;2024-03-07T15:46:04;16.33;;;9.18;;
17193;SDS011;8713;48.388;10.928;2024-03-07T15:47:32;15.88;;;8.18;;
17193;SDS011;8713;48.388;10.928;2024-03-07T15:49:01;17.60;;;9.40;;
17193;SDS011;8713;48.388;10.928;2024-03-07T15:50:30;15.35;;;8.68;;
17193;SDS011;8713;48.388;10.928;2024-03-07T15:51:59;16.63;;;9.23;;
17193;SDS011;8713;48.388;10.928;2024-03-07T15:53:27;15.80;;;8.43;;
17193;SDS011;8713;48.388;10.928;2024-03-07T15:54:55;16.65;;;8.43;;
17193;SDS011;8713;48.388;10.928;2024-03-07T15:56:24;18.85;;;11.05;;
17193;SDS011;8713;48.388;10.928;2024-03-07T15:57:53;15.13;;;8.68;;
17193;SDS011;8713;48.388;10.928;2024-03-07T15:59:23;17.08;;;9.20;;
17193;SDS011;8713;48.388;10.928;2024-03-07T16:00:51;17.70;;;9.63;;
17193;SDS011;8713;48.388;10.928;2024-03-07T16:02:21;16.65;;;9.23;;
17193;SDS011;8713;48.388;10.928;2024-03-07T16:03:41;21.08;;;8.90;;
17193;SDS011;8713;48.388;10.928;2024-03-07T16:05:10;20.08;;;12.20;;
17193;SDS011;8713;48.388;10.928;2024-03-07T16:06:42;19.85;;;12.13;;
17193;SDS011;8713;48.388;10.928;2024-03-07T16:08:13;18.40;;;9.90;;
17193;SDS011;8713;48.388;10.928;2024-03-07T16:09:45;19.27;;;10.93;;
17193;SDS011;8713;48.388;10.928;2024-03-07T16:11:18;18.67;;;9.82;;
17193;SDS011;8713;48.388;10.928;2024-03-07T16:12:51;13.93;;;8.65;;
17193;SDS011;8713;48.388;10.928;2024-03-07T16:14:22;16.42;;;10.05;;
17193;SDS011;8713;48.388;10.928;2024-03-07T16:15:50;14.45;;;8.15;;
17193;SDS011;8713;48.388;10.928;2024-03-07T16:17:20;17.77;;;9.63;;
17193;SDS011;8713;48.388;10.928;2024-03-07T16:18:49;19.00;;;9.85;;
17193;SDS011;8713;48.388;10.928;2024-03-07T16:20:20;16.15;;;8.48;;
17193;SDS011;8713;48.388;10.928;2024-03-07T16:21:48;16.67;;;9.02;;
17193;SDS011;8713;48.388;10.928;2024-03-07T16:23:16;21.83;;;10.60;;
17193;SDS011;8713;48.388;10.928;2024-03-07T16:24:45;17.73;;;8.30;;
17193;SDS011;8713;48.388;10.928;2024-03-07T16:26:13;19.80;;;10.27;;
17193;SDS011;8713;48.388;10.928;2024-03-07T16:27:44;17.08;;;8.75;;
17193;SDS011;8713;48.388;10.928;2024-03-07T16:29:15;16.40;;;8.80;;
17193;SDS011;8713;48.388;10.928;2024-03-07T16:30:44;17.63;;;8.52;;
17193;SDS011;8713;48.388;10.928;2024-03-07T16:32:13;16.15;;;9.25;;
17193;SDS011;8713;48.388;10.928;2024-03-07T16:33:42;17.25;;;8.38;;
17193;SDS011;8713;48.388;10.928;2024-03-07T16:35:10;15.35;;;8.25;;
17193;SDS011;8713;48.388;10.928;2024-03-07T16:36:39;20.35;;;9.32;;
17193;SDS011;8713;48.388;10.928;2024-03-07T16:38:07;15.80;;;8.13;;
17193;SDS011;8713;48.388;10.928;2024-03-07T16:39:37;17.58;;;9.48;;
17193;SDS011;8713;48.388;10.928;2024-03-07T16:41:06;18.90;;;9.52;;
17193;SDS011;8713;48.388;10.928;2024-03-07T16:42:38;16.42;;;8.75;;
17193;SDS011;8713;48.388;10.928;2024-03-07T16:43:55;17.08;;;9.57;;
17193;SDS011;8713;48.388;10.928;2024-03-07T16:45:27;20.35;;;10.45;;
17193;SDS011;8713;48.388;10.928;2024-03-07T16:46:57;19.27;;;9.73;;
17193;SDS011;8713;48.388;10.928;2024-03-07T16:48:25;21.27;;;9.35;;
17193;SDS011;8713;48.388;10.928;2024-03-07T16:49:54;18.05;;;9.20;;
17193;SDS011;8713;48.388;10.928;2024-03-07T16:51:22;17.05;;;9.75;;
17193;SDS011;8713;48.388;10.928;2024-03-07T16:52:50;16.23;;;9.30;;
17193;SDS011;8713;48.388;10.928;2024-03-07T16:54:19;17.90;;;8.98;;